Time;durP1;ratioP1;P1;durP2;ratioP2;P2;SDS_P1;SDS_P2;PMS_P1;PMS_P2;Temp;Humidity;BMP_temperature;BMP_pressure;BME280_temperature;BME280_humidity;BME280_pressure;Samples;Min_cycle;Max_cycle;Signal;HPM_P1;HPM_P2
2022/12/19 00:02:09;;;;;;;12.73;7.68;;;2.60;78.20;;;;;;5048303;28;20082;-62
2022/12/19 00:04:35;;;;;;;14.18;7.88;;;2.60;78.30;;;;;;5043131;28;20032;-60
2022/12/19 00:07:01;;;;;;;17.33;10.57;;;2.60;78.30;;;;;;5047132;28;20017;-62
2022/12/19 00:09:26;;;;;;;18.73;8.38;;;2.60;78.30;;;;;;5050815;28;20033;-62
2022/12/19 00:11:52;;;;;;;13.80;8.57;;;2.60;78.40;;;;;;5054004;28;20444;-65
2022/12/19 00:14:19;;;;;;;18.45;7.75;;;2.60;78.50;;;;;;5040205;28;20044;-65
2022/12/19 00:16:45;;;;;;;16.00;8.10;;;2.60;78.50;;;;;;5049659;28;20021;-62
2022/12/19 00:19:11;;;;;;;15.15;9.02;;;2.70;78.60;;;;;;5052120;28;20031;-65
2022/12/19 00:21:38;;;;;;;13.95;9.13;;;2.70;78.60;;;;;;5045865;28;20040;-62
2022/12/19 00:24:05;;;;;;;10.80;7.25;;;2.60;78.60;;;;;;5048903;28;20043;-65
2022/12/19 00:26:33;;;;;;;13.60;7.00;;;2.70;78.70;;;;;;5047202;28;20028;-65
2022/12/19 00:29:03;;;;;;;16.92;8.85;;;2.70;78.50;;;;;;5040036;28;20423;-65
2022/12/19 00:31:30;;;;;;;13.18;7.47;;;2.70;78.40;;;;;;5041259;28;20031;-62
2022/12/19 00:33:57;;;;;;;14.18;8.35;;;2.70;78.40;;;;;;5054689;28;20037;-65
2022/12/19 00:36:25;;;;;;;13.43;9.23;;;2.70;78.50;;;;;;5045192;28;20041;-65
2022/12/19 00:38:53;;;;;;;19.40;9.23;;;2.70;78.60;;;;;;5043191;28;20039;-59
2022/12/19 00:41:22;;;;;;;13.43;8.60;;;2.70;78.80;;;;;;5048046;28;20082;-62
2022/12/19 00:44:03;;;;;;;13.60;8.07;;;2.70;79.00;;;;;;5049807;28;20478;-62
2022/12/19 00:46:31;;;;;;;14.57;9.23;;;2.70;79.00;;;;;;5039340;28;20057;-64
2022/12/19 00:48:58;;;;;;;12.57;9.18;;;2.70;79.40;;;;;;5046058;28;20074;-62
2022/12/19 00:51:29;;;;;;;16.90;8.27;;;2.70;79.00;;;;;;5056720;28;20403;-65
2022/12/19 00:53:56;;;;;;;16.70;8.48;;;2.80;79.10;;;;;;5047750;28;20091;-62
2022/12/19 00:56:27;;;;;;;14.73;9.10;;;2.80;79.20;;;;;;5043754;28;20494;-62
2022/12/19 00:58:54;;;;;;;15.27;8.50;;;2.70;79.30;;;;;;5047651;28;20029;-62
2022/12/19 01:01:26;;;;;;;17.20;8.70;;;2.70;79.60;;;;;;5051334;28;20037;-65
2022/12/19 01:03:53;;;;;;;14.73;9.57;;;2.80;79.90;;;;;;5042201;28;20108;-65
2022/12/19 01:06:19;;;;;;;12.45;8.63;;;2.70;80.10;;;;;;5044876;28;20086;-60
2022/12/19 01:08:45;;;;;;;14.07;9.05;;;2.70;80.30;;;;;;5050155;28;20028;-65
2022/12/19 01:11:10;;;;;;;14.32;8.68;;;2.70;80.40;;;;;;5056205;28;20049;-63
2022/12/19 01:13:37;;;;;;;13.07;8.25;;;2.70;80.40;;;;;;5039006;28;20421;-62
2022/12/19 01:16:09;;;;;;;12.32;7.65;;;2.70;80.80;;;;;;5044856;28;20032;-62
2022/12/19 01:18:35;;;;;;;16.73;9.18;;;2.70;80.90;;;;;;5051933;28;20056;-62
2022/12/19 01:21:04;;;;;;;16.80;9.30;;;2.80;81.10;;;;;;5040972;28;20024;-65
2022/12/19 01:23:30;;;;;;;19.30;8.95;;;2.80;81.00;;;;;;5045958;28;20028;-62
2022/12/19 01:25:56;;;;;;;15.13;8.30;;;2.80;81.00;;;;;;5049646;28;20448;-65
2022/12/19 01:28:22;;;;;;;14.57;8.45;;;2.80;80.90;;;;;;5042504;28;20040;-65
2022/12/19 01:30:49;;;;;;;12.55;7.93;;;2.80;80.80;;;;;;5043675;28;20036;-65
2022/12/19 01:33:16;;;;;;;14.30;7.68;;;2.90;80.80;;;;;;5052182;28;20029;-62
2022/12/19 01:35:44;;;;;;;13.25;8.55;;;2.90;80.70;;;;;;5045174;28;20026;-65
2022/12/19 01:38:15;;;;;;;14.15;8.60;;;2.90;80.60;;;;;;5053641;28;20436;-61
2022/12/19 01:40:56;;;;;;;14.52;8.00;;;2.90;81.40;;;;;;5050764;28;20439;-63
2022/12/19 01:43:24;;;;;;;13.38;7.90;;;3.00;80.80;;;;;;5052718;28;20375;-63
2022/12/19 01:45:57;;;;;;;16.77;9.18;;;3.00;80.90;;;;;;5051463;28;20144;-64
2022/12/19 01:48:37;;;;;;;12.80;7.88;;;3.00;80.90;;;;;;5037125;28;20404;-63
2022/12/19 01:51:13;;;;;;;8.88;6.88;;;3.00;81.00;;;;;;5054616;28;20028;-60
2022/12/19 01:53:45;;;;;;;12.85;8.50;;;3.00;81.00;;;;;;5047826;28;20033;-60
2022/12/19 01:56:11;;;;;;;13.18;7.35;;;3.10;80.90;;;;;;5049302;28;20519;-60
2022/12/19 01:58:42;;;;;;;11.20;6.97;;;3.00;80.80;;;;;;5041275;28;20024;-63
2022/12/19 02:01:08;;;;;;;10.50;6.18;;;3.10;80.90;;;;;;5038940;28;20365;-63
2022/12/19 02:03:37;;;;;;;11.13;7.18;;;3.10;80.70;;;;;;5039988;28;20044;-60
2022/12/19 02:06:05;;;;;;;12.02;6.82;;;3.10;80.70;;;;;;5043772;28;20083;-60
2022/12/19 02:08:31;;;;;;;11.00;6.85;;;3.10;80.70;;;;;;5046362;28;20040;-61
2022/12/19 02:10:56;;;;;;;17.05;7.80;;;3.10;80.70;;;;;;5027280;28;20037;-61
2022/12/19 02:13:23;;;;;;;13.18;7.00;;;3.20;80.80;;;;;;5045612;28;20024;-61
2022/12/19 02:16:09;;;;;;;12.77;7.88;;;3.20;80.80;;;;;;5053118;28;20047;-61
2022/12/19 02:18:37;;;;;;;12.77;7.93;;;3.20;80.90;;;;;;5044703;28;20060;-61
2022/12/19 02:21:27;;;;;;;11.07;6.65;;;3.20;81.10;;;;;;5049352;28;20071;-61
2022/12/19 02:24:18;;;;;;;10.07;8.18;;;3.20;81.00;;;;;;5044732;28;20444;-63
2022/12/19 02:26:58;;;;;;;15.38;8.82;;;3.30;81.00;;;;;;5042520;28;20384;-63
2022/12/19 02:29:42;;;;;;;12.23;7.35;;;3.30;81.40;;;;;;5043106;28;20032;-63
2022/12/19 02:32:23;;;;;;;10.57;7.53;;;3.30;81.40;;;;;;5046298;28;20472;-63
2022/12/19 02:35:06;;;;;;;15.52;8.80;;;3.30;81.40;;;;;;5040911;28;20121;-63
2022/12/19 02:37:38;;;;;;;14.93;8.32;;;3.30;82.10;;;;;;5043332;28;20029;-64
2022/12/19 02:40:15;;;;;;;13.80;7.63;;;3.30;82.00;;;;;;5052327;28;20064;-63
2022/12/19 02:42:45;;;;;;;9.90;6.63;;;3.30;81.90;;;;;;5051269;28;20025;-60
2022/12/19 02:45:14;;;;;;;9.82;6.50;;;3.40;81.80;;;;;;5047493;28;20025;-60
2022/12/19 02:47:41;;;;;;;9.50;6.78;;;3.40;81.70;;;;;;5048055;28;20063;-62
2022/12/19 02:50:08;;;;;;;11.13;7.38;;;3.40;81.70;;;;;;5044953;28;20021;-63
2022/12/19 02:52:33;;;;;;;13.38;8.00;;;3.40;81.70;;;;;;5044376;28;20079;-60
2022/12/19 02:55:08;;;;;;;25.38;10.18;;;3.40;81.70;;;;;;5047174;28;20049;-60
2022/12/19 02:57:48;;;;;;;15.85;7.90;;;3.40;81.90;;;;;;5044762;28;20028;-60
2022/12/19 03:00:25;;;;;;;14.57;7.20;;;3.50;82.00;;;;;;5043007;28;20049;-60
2022/12/19 03:03:03;;;;;;;10.75;6.93;;;3.50;82.10;;;;;;5045164;28;20121;-60
2022/12/19 03:05:48;;;;;;;14.32;7.47;;;3.50;82.00;;;;;;5041994;28;20090;-62
2022/12/19 03:08:20;;;;;;;15.70;8.77;;;3.50;81.90;;;;;;5044084;28;20100;-62
2022/12/19 03:11:03;;;;;;;11.88;7.68;;;3.50;82.00;;;;;;5050597;28;20040;-60
2022/12/19 03:13:35;;;;;;;10.65;7.40;;;3.50;81.90;;;;;;5041083;28;20037;-60
2022/12/19 03:16:03;;;;;;;11.88;7.13;;;3.50;82.00;;;;;;5047030;28;20391;-60
2022/12/19 03:18:31;;;;;;;10.85;7.13;;;3.50;81.80;;;;;;5045743;28;20025;-62
2022/12/19 03:21:16;;;;;;;15.15;8.18;;;3.60;81.80;;;;;;5045780;28;20036;-60
2022/12/19 03:23:44;;;;;;;14.27;7.85;;;3.60;81.90;;;;;;5035273;28;20388;-62
2022/12/19 03:26:16;;;;;;;15.32;8.65;;;3.60;81.90;;;;;;5046073;28;20029;-60
2022/12/19 03:28:52;;;;;;;16.02;7.43;;;3.60;81.90;;;;;;5040421;28;20391;-60
2022/12/19 03:31:21;;;;;;;9.50;6.78;;;3.60;81.90;;;;;;5042185;28;20100;-60
2022/12/19 03:33:53;;;;;;;9.98;7.00;;;3.60;82.00;;;;;;5039016;28;20053;-62
2022/12/19 03:36:24;;;;;;;17.30;7.00;;;3.60;82.00;;;;;;5057134;28;20017;-63
2022/12/19 03:38:50;;;;;;;11.07;7.45;;;3.60;82.00;;;;;;5043900;28;20478;-62
2022/12/19 03:43:07;;;;;;;10.55;5.93;;;3.60;82.00;;;;;;5051256;28;20033;-62
2022/12/19 03:44:09;;;;;;;10.73;6.13;;;3.70;82.00;;;;;;5055088;28;20036;-62
2022/12/19 03:46:39;;;;;;;11.20;7.15;;;3.60;82.00;;;;;;5046956;28;20036;-62
2022/12/19 03:49:06;;;;;;;10.23;5.55;;;3.70;82.00;;;;;;5042395;28;20037;-60
2022/12/19 03:51:45;;;;;;;14.57;7.70;;;3.70;82.00;;;;;;5050683;28;20220;-63
2022/12/19 03:54:19;;;;;;;9.50;6.60;;;3.70;82.00;;;;;;5047850;28;20025;-62
2022/12/19 03:57:04;;;;;;;14.18;7.22;;;3.80;82.00;;;;;;5047043;28;20053;-62
2022/12/19 03:59:48;;;;;;;10.50;6.03;;;3.80;81.90;;;;;;5051456;28;20515;-62
2022/12/19 04:02:16;;;;;;;10.35;7.05;;;3.80;81.90;;;;;;5059799;28;20021;-62
2022/12/19 04:04:49;;;;;;;9.05;6.90;;;3.80;81.90;;;;;;5051761;28;20017;-62
2022/12/19 04:07:16;;;;;;;10.38;6.28;;;3.80;81.90;;;;;;5051975;28;20031;-62
2022/12/19 04:09:44;;;;;;;13.57;7.47;;;3.80;81.90;;;;;;5049322;28;20079;-63
2022/12/19 04:12:18;;;;;;;10.18;7.07;;;3.90;81.90;;;;;;5054497;28;20396;-62
2022/12/19 04:14:44;;;;;;;12.00;7.20;;;3.90;81.90;;;;;;5048670;28;20388;-63
2022/12/19 04:17:28;;;;;;;10.05;6.53;;;3.90;82.00;;;;;;5049936;28;20025;-63
2022/12/19 04:20:05;;;;;;;10.98;6.28;;;3.90;82.00;;;;;;5053981;28;20048;-63
2022/12/19 04:23:02;;;;;;;14.27;6.63;;;3.90;82.00;;;;;;5046537;28;20104;-62
2022/12/19 04:25:35;;;;;;;11.52;7.03;;;3.90;82.00;;;;;;5044921;28;20048;-60
2022/12/19 04:28:24;;;;;;;12.55;6.90;;;3.90;82.00;;;;;;5037961;28;20021;-62
2022/12/19 04:30:51;;;;;;;12.18;6.75;;;3.90;82.20;;;;;;5052313;28;20717;-60
2022/12/19 04:33:17;;;;;;;13.85;6.75;;;3.90;82.50;;;;;;5057203;28;20025;-63
2022/12/19 04:35:42;;;;;;;9.07;5.90;;;3.90;82.50;;;;;;5051205;28;20396;-61
2022/12/19 04:38:08;;;;;;;9.73;6.88;;;3.90;82.50;;;;;;5039951;28;20032;-62
2022/12/19 04:40:34;;;;;;;12.07;6.30;;;4.00;82.50;;;;;;5046577;28;20033;-63
2022/12/19 04:43:00;;;;;;;14.88;7.30;;;4.00;82.50;;;;;;5057064;28;20072;-60
2022/12/19 04:45:26;;;;;;;9.68;6.72;;;4.00;82.50;;;;;;5041254;28;20065;-62
2022/12/19 04:47:51;;;;;;;10.32;6.32;;;4.10;82.50;;;;;;5048895;28;20036;-61
2022/12/19 04:50:17;;;;;;;11.02;5.80;;;4.10;82.40;;;;;;5046717;28;20032;-60
2022/12/19 04:52:43;;;;;;;12.65;6.25;;;4.10;82.40;;;;;;5051524;28;20045;-63
2022/12/19 04:55:09;;;;;;;7.97;6.03;;;4.20;82.40;;;;;;5050599;28;20135;-60
2022/12/19 04:57:34;;;;;;;8.05;5.72;;;4.20;82.20;;;;;;5049302;28;20017;-60
2022/12/19 05:00:02;;;;;;;11.18;6.47;;;4.10;82.40;;;;;;5045058;28;20037;-60
2022/12/19 05:02:28;;;;;;;10.38;6.90;;;4.20;82.60;;;;;;5047371;28;20607;-62
2022/12/19 05:04:54;;;;;;;9.20;5.63;;;4.20;83.00;;;;;;5042910;28;20125;-63
2022/12/19 05:07:20;;;;;;;9.15;5.07;;;4.20;83.10;;;;;;5050330;28;20037;-60
2022/12/19 05:09:45;;;;;;;8.68;5.90;;;4.30;83.00;;;;;;5050063;28;20054;-63
2022/12/19 05:12:11;;;;;;;9.02;5.65;;;4.30;83.10;;;;;;5044713;28;20032;-60
2022/12/19 05:14:37;;;;;;;10.82;5.75;;;4.40;83.20;;;;;;5035919;28;20018;-60
2022/12/19 05:17:02;;;;;;;7.90;4.90;;;4.40;83.00;;;;;;5029161;28;20030;-63
2022/12/19 05:19:28;;;;;;;8.05;4.80;;;4.40;83.00;;;;;;5024409;28;20117;-63
2022/12/19 05:21:54;;;;;;;8.40;5.05;;;4.50;83.20;;;;;;5047609;28;20031;-61
2022/12/19 05:24:20;;;;;;;8.13;5.30;;;4.50;83.40;;;;;;5037808;28;20137;-61
2022/12/19 05:26:47;;;;;;;6.97;4.93;;;4.60;83.80;;;;;;5059806;28;20045;-62
2022/12/19 05:29:12;;;;;;;7.40;5.28;;;4.60;83.60;;;;;;5041041;28;20503;-60
2022/12/19 05:31:38;;;;;;;9.55;5.78;;;4.60;83.60;;;;;;5042097;28;20025;-60
2022/12/19 05:34:04;;;;;;;7.25;4.50;;;4.60;84.10;;;;;;5053982;28;20033;-63
2022/12/19 05:36:29;;;;;;;9.98;6.13;;;4.70;83.60;;;;;;5044888;28;20053;-61
2022/12/19 05:38:55;;;;;;;7.20;4.57;;;4.70;83.60;;;;;;5043986;28;20036;-62
2022/12/19 05:41:21;;;;;;;8.45;5.18;;;4.70;83.60;;;;;;5041367;28;20033;-63
2022/12/19 05:43:52;;;;;;;7.80;5.15;;;4.80;83.50;;;;;;5041692;28;20033;-62
2022/12/19 05:46:18;;;;;;;9.13;5.63;;;4.80;83.40;;;;;;5047685;28;20116;-61
2022/12/19 05:48:44;;;;;;;7.05;4.85;;;4.80;83.30;;;;;;5044865;28;20512;-60
2022/12/19 05:51:11;;;;;;;8.25;5.13;;;4.80;83.30;;;;;;5035359;28;20038;-61
2022/12/19 05:53:38;;;;;;;7.55;4.50;;;4.90;83.30;;;;;;5047283;28;20037;-62
2022/12/19 05:56:04;;;;;;;5.50;3.65;;;4.90;83.30;;;;;;5034751;28;20033;-62
2022/12/19 05:58:30;;;;;;;6.75;4.97;;;5.00;83.20;;;;;;5048410;28;20071;-63
2022/12/19 06:01:04;;;;;;;7.65;5.25;;;5.00;83.50;;;;;;5046837;28;20028;-62
2022/12/19 06:03:30;;;;;;;6.03;4.45;;;5.00;83.40;;;;;;5045614;28;20109;-60
2022/12/19 06:05:56;;;;;;;5.72;4.03;;;5.00;83.50;;;;;;5040553;28;20119;-60
2022/12/19 06:08:22;;;;;;;6.75;4.32;;;5.00;83.40;;;;;;5041250;28;20483;-62
2022/12/19 06:10:48;;;;;;;5.15;3.97;;;5.10;83.60;;;;;;5043019;28;20139;-62
2022/12/19 06:13:14;;;;;;;6.32;4.55;;;5.10;83.50;;;;;;5044761;28;20033;-62
2022/12/19 06:15:39;;;;;;;5.13;3.20;;;5.10;83.40;;;;;;5050996;28;20033;-60
2022/12/19 06:18:05;;;;;;;5.07;3.63;;;5.20;83.30;;;;;;5047997;28;20036;-61
2022/12/19 06:20:31;;;;;;;4.53;4.05;;;5.20;83.30;;;;;;5037659;28;20020;-62
2022/12/19 06:22:57;;;;;;;5.28;3.53;;;5.20;83.40;;;;;;5045206;28;20090;-62
2022/12/19 06:25:23;;;;;;;7.45;4.47;;;5.20;83.40;;;;;;5030200;28;20024;-62
2022/12/19 06:27:49;;;;;;;5.57;4.07;;;5.20;83.50;;;;;;5041701;28;20356;-60
2022/12/19 06:30:14;;;;;;;5.93;3.55;;;5.30;83.50;;;;;;5028536;28;20455;-62
2022/12/19 06:32:40;;;;;;;6.90;4.18;;;5.30;83.50;;;;;;5050484;28;20388;-61
2022/12/19 06:35:06;;;;;;;5.70;3.88;;;5.30;83.90;;;;;;5039256;28;21125;-61
2022/12/19 06:37:32;;;;;;;5.00;3.30;;;5.30;83.90;;;;;;5043962;28;20033;-62
2022/12/19 06:39:58;;;;;;;5.38;3.92;;;5.30;84.20;;;;;;5045008;28;20032;-60
2022/12/19 06:42:23;;;;;;;3.63;3.30;;;5.30;84.00;;;;;;5047925;28;20112;-60
2022/12/19 06:44:54;;;;;;;8.57;3.92;;;5.40;84.00;;;;;;5048774;28;20616;-62
2022/12/19 06:47:21;;;;;;;5.65;3.47;;;5.40;84.00;;;;;;5046129;28;20029;-62
2022/12/19 06:49:47;;;;;;;6.05;4.05;;;5.40;83.80;;;;;;5038204;28;20124;-61
2022/12/19 06:52:14;;;;;;;4.72;3.20;;;5.40;83.80;;;;;;5042486;28;20040;-60
2022/12/19 06:54:40;;;;;;;5.05;3.65;;;5.40;83.80;;;;;;5037815;28;20028;-62
2022/12/19 06:57:06;;;;;;;5.55;3.45;;;5.40;83.90;;;;;;5042813;28;20037;-62
2022/12/19 06:59:32;;;;;;;6.43;3.55;;;5.50;84.00;;;;;;5042381;28;20503;-60
2022/12/19 07:02:00;;;;;;;3.95;2.70;;;5.50;83.90;;;;;;5043079;28;20087;-62
2022/12/19 07:04:34;;;;;;;6.63;2.60;;;5.50;83.80;;;;;;5045474;28;20112;-60
2022/12/19 07:07:00;;;;;;;2.75;2.35;;;5.50;83.70;;;;;;5047421;28;20024;-61
2022/12/19 07:09:27;;;;;;;3.38;2.28;;;5.50;83.70;;;;;;5045946;28;20036;-61
2022/12/19 07:11:53;;;;;;;2.22;2.03;;;5.50;83.70;;;;;;5044404;28;20029;-62
2022/12/19 07:14:19;;;;;;;3.00;2.47;;;5.50;83.70;;;;;;5048441;28;20507;-62
2022/12/19 07:16:47;;;;;;;2.78;2.20;;;5.50;83.80;;;;;;5043863;28;20464;-60
2022/12/19 07:19:13;;;;;;;4.03;2.95;;;5.60;83.80;;;;;;5049534;28;20013;-60
2022/12/19 07:21:39;;;;;;;8.90;3.72;;;5.70;83.60;;;;;;5050207;28;20124;-60
2022/12/19 07:24:06;;;;;;;6.10;2.47;;;5.60;83.60;;;;;;5038130;28;20071;-60
2022/12/19 07:26:32;;;;;;;7.18;2.47;;;5.60;83.70;;;;;;5044144;28;20166;-60
2022/12/19 07:28:58;;;;;;;3.17;2.33;;;5.70;83.70;;;;;;5044617;28;20476;-63
2022/12/19 07:31:24;;;;;;;6.93;3.05;;;5.70;83.60;;;;;;5046702;28;20037;-61
2022/12/19 07:33:50;;;;;;;5.82;2.88;;;5.70;83.60;;;;;;5048017;28;20036;-60
2022/12/19 07:36:16;;;;;;;3.65;2.67;;;5.70;84.40;;;;;;5043592;28;20084;-62
2022/12/19 07:38:41;;;;;;;5.60;2.90;;;5.70;83.80;;;;;;5051168;28;20148;-62
2022/12/19 07:41:07;;;;;;;3.70;2.45;;;5.70;84.00;;;;;;5045858;28;20009;-62
2022/12/19 07:43:33;;;;;;;5.65;3.42;;;5.70;84.00;;;;;;5042499;28;20048;-60
2022/12/19 07:45:58;;;;;;;10.80;3.10;;;5.70;84.00;;;;;;5042222;28;20087;-60
2022/12/19 07:48:24;;;;;;;4.32;2.70;;;5.70;84.00;;;;;;5044059;28;20464;-60
2022/12/19 07:50:50;;;;;;;16.00;2.58;;;5.70;84.00;;;;;;5046704;28;20868;-61
2022/12/19 07:53:15;;;;;;;4.25;2.65;;;5.80;83.90;;;;;;5039195;28;20041;-61
2022/12/19 07:55:41;;;;;;;12.30;3.85;;;5.80;83.90;;;;;;5054734;28;20511;-62
2022/12/19 07:58:10;;;;;;;4.22;2.63;;;5.80;83.80;;;;;;5044628;28;20107;-62
2022/12/19 08:00:36;;;;;;;9.15;3.42;;;5.90;83.80;;;;;;5042165;28;20514;-67
2022/12/19 08:03:03;;;;;;;8.98;2.45;;;5.90;83.70;;;;;;5038657;28;20124;-64
2022/12/19 08:05:29;;;;;;;3.03;1.92;;;5.90;83.70;;;;;;5049635;28;20037;-65
2022/12/19 08:07:55;;;;;;;12.23;3.83;;;5.90;83.70;;;;;;5028631;28;20032;-62
2022/12/19 08:10:21;;;;;;;3.67;2.30;;;5.90;83.70;;;;;;5041869;28;20404;-63
2022/12/19 08:12:48;;;;;;;6.25;2.67;;;5.90;83.70;;;;;;5042343;28;20659;-62
2022/12/19 08:15:13;;;;;;;2.58;2.35;;;5.90;83.70;;;;;;5042298;28;20017;-61
2022/12/19 08:17:39;;;;;;;2.88;2.42;;;5.90;83.70;;;;;;5040356;28;20020;-62
2022/12/19 08:20:06;;;;;;;7.25;2.78;;;6.00;83.80;;;;;;5039825;28;20026;-60
2022/12/19 08:22:32;;;;;;;5.68;2.92;;;6.00;83.70;;;;;;5037571;28;20469;-62
2022/12/19 08:24:58;;;;;;;4.00;2.45;;;6.00;83.80;;;;;;5042916;28;20040;-67
2022/12/19 08:27:24;;;;;;;4.07;2.63;;;6.10;83.90;;;;;;5043777;28;20051;-66
2022/12/19 08:29:50;;;;;;;4.05;2.38;;;6.20;84.00;;;;;;5040801;28;20148;-67
2022/12/19 08:32:15;;;;;;;3.33;2.85;;;6.40;84.30;;;;;;5050102;28;20453;-66
2022/12/19 08:34:41;;;;;;;5.18;3.10;;;6.60;84.00;;;;;;5044782;28;20025;-66
2022/12/19 08:37:07;;;;;;;2.78;2.17;;;6.70;84.00;;;;;;5044139;28;20036;-68
2022/12/19 08:39:33;;;;;;;2.85;2.30;;;6.90;83.70;;;;;;5036824;28;20492;-66
2022/12/19 08:41:59;;;;;;;2.50;1.60;;;7.00;83.40;;;;;;5041728;28;20022;-66
2022/12/19 08:44:25;;;;;;;3.13;2.03;;;7.20;83.10;;;;;;5036410;28;20039;-63
2022/12/19 08:46:51;;;;;;;10.60;2.88;;;7.10;83.20;;;;;;5043945;28;20087;-61
2022/12/19 08:49:18;;;;;;;5.90;2.03;;;7.20;83.80;;;;;;5039377;28;20036;-61
2022/12/19 08:51:44;;;;;;;2.88;1.42;;;7.30;83.70;;;;;;5042783;28;20427;-62
2022/12/19 08:54:11;;;;;;;2.85;1.95;;;7.40;83.60;;;;;;5034467;28;20025;-62
2022/12/19 08:56:37;;;;;;;4.40;2.17;;;7.50;83.80;;;;;;5036596;28;20636;-66
2022/12/19 08:59:03;;;;;;;2.70;1.65;;;7.50;83.60;;;;;;5040752;28;20099;-66
2022/12/19 09:01:29;;;;;;;2.28;2.00;;;7.60;83.60;;;;;;5046757;28;20025;-65
2022/12/19 09:03:58;;;;;;;3.95;1.73;;;7.70;83.80;;;;;;5043446;28;20484;-67
2022/12/19 09:06:24;;;;;;;3.53;1.90;;;7.80;83.70;;;;;;5075813;28;20079;-68
2022/12/19 09:08:50;;;;;;;2.58;2.00;;;7.80;83.50;;;;;;5053937;28;20471;-67
2022/12/19 09:11:18;;;;;;;1.75;1.60;;;7.80;83.60;;;;;;5047640;28;20361;-66
2022/12/19 09:13:45;;;;;;;2.17;1.50;;;7.80;83.80;;;;;;5049906;28;20028;-62
2022/12/19 09:16:12;;;;;;;5.40;2.75;;;7.90;84.10;;;;;;5042149;28;20439;-61
2022/12/19 09:18:39;;;;;;;2.88;1.95;;;7.90;84.00;;;;;;5047302;28;20022;-62
2022/12/19 09:21:05;;;;;;;4.78;1.90;;;8.00;84.10;;;;;;5048985;28;20036;-61
2022/12/19 09:23:32;;;;;;;2.25;1.85;;;8.00;83.90;;;;;;5043186;28;20070;-62
2022/12/19 09:26:07;;;;;;;7.88;2.45;;;8.00;84.00;;;;;;5048158;28;20025;-62
2022/12/19 09:28:34;;;;;;;2.05;1.70;;;8.00;84.10;;;;;;5042980;28;20039;-62
2022/12/19 09:31:05;;;;;;;3.35;2.08;;;8.00;84.10;;;;;;5030765;28;20041;-62
2022/12/19 09:33:32;;;;;;;3.17;1.70;;;8.10;84.30;;;;;;5047787;28;20025;-61
2022/12/19 09:35:59;;;;;;;3.90;2.25;;;8.10;84.40;;;;;;5047119;28;20029;-62
2022/12/19 09:38:25;;;;;;;5.80;2.50;;;8.10;84.30;;;;;;5028168;28;20021;-62
2022/12/19 09:40:57;;;;;;;1.65;1.42;;;8.10;84.50;;;;;;5038735;28;20033;-61
2022/12/19 09:43:53;;;;;;;1.98;1.63;;;8.20;84.40;;;;;;5041093;28;20033;-62
2022/12/19 09:46:21;;;;;;;2.70;1.95;;;8.20;84.30;;;;;;5050299;28;20051;-62
2022/12/19 09:48:52;;;;;;;1.80;1.70;;;8.20;84.80;;;;;;5042766;28;20052;-61
2022/12/19 09:52:01;;;;;;;2.75;1.90;;;8.20;84.20;;;;;;5042381;28;20094;-62
2022/12/19 09:54:35;;;;;;;2.20;1.60;;;8.20;84.00;;;;;;5040809;28;20041;-61
2022/12/19 09:57:05;;;;;;;1.83;1.70;;;8.20;84.20;;;;;;5042693;28;20388;-62
2022/12/19 09:59:50;;;;;;;3.80;2.20;;;8.20;84.10;;;;;;5038389;28;20147;-61
2022/12/19 10:02:42;;;;;;;3.15;1.90;;;8.30;84.10;;;;;;5044676;28;20028;-62
2022/12/19 10:05:32;;;;;;;3.25;2.08;;;8.30;84.00;;;;;;5039254;28;20041;-61
2022/12/19 10:08:00;;;;;;;3.28;2.63;;;8.30;84.30;;;;;;5038749;28;20039;-62
2022/12/19 10:10:53;;;;;;;3.13;2.13;;;8.20;84.50;;;;;;5050253;28;20037;-67
2022/12/19 10:13:28;;;;;;;2.35;1.58;;;8.30;84.90;;;;;;5045850;28;20115;-61
2022/12/19 10:16:23;;;;;;;4.07;2.25;;;8.30;85.00;;;;;;5046070;28;20033;-62
2022/12/19 10:19:00;;;;;;;2.22;1.83;;;8.40;85.70;;;;;;5035826;28;20079;-62
2022/12/19 10:21:35;;;;;;;3.88;2.28;;;8.40;85.60;;;;;;5041563;28;20025;-63
2022/12/19 10:24:26;;;;;;;2.40;1.75;;;8.40;85.50;;;;;;5036983;28;20071;-67
2022/12/19 10:26:57;;;;;;;3.08;2.08;;;8.50;85.70;;;;;;5031711;28;20044;-67
2022/12/19 10:30:00;;;;;;;2.17;1.97;;;8.50;85.80;;;;;;5036859;28;20095;-67
2022/12/19 10:32:45;;;;;;;3.05;2.33;;;8.50;85.70;;;;;;5033900;28;20291;-63
2022/12/19 10:35:17;;;;;;;4.90;2.13;;;8.50;86.10;;;;;;5032420;28;20511;-62
2022/12/19 10:37:49;;;;;;;3.60;2.05;;;8.50;86.60;;;;;;5043346;28;20515;-66
2022/12/19 10:40:33;;;;;;;2.55;1.90;;;8.50;86.00;;;;;;5052885;28;20029;-66
2022/12/19 10:43:08;;;;;;;2.47;1.67;;;8.50;86.10;;;;;;5069085;28;20120;-61
2022/12/19 10:45:44;;;;;;;4.35;2.00;;;8.50;86.20;;;;;;5028441;28;20029;-61
2022/12/19 10:48:17;;;;;;;3.00;1.88;;;8.50;86.00;;;;;;5039571;28;20471;-62
2022/12/19 10:50:43;;;;;;;1.60;1.30;;;8.50;86.00;;;;;;5040094;28;20468;-61
2022/12/19 10:53:11;;;;;;;4.25;2.45;;;8.60;86.10;;;;;;5046599;28;20115;-61
2022/12/19 10:55:52;;;;;;;2.15;1.55;;;8.60;86.10;;;;;;5048744;28;20076;-63
2022/12/19 10:58:19;;;;;;;2.00;1.42;;;8.60;86.00;;;;;;5053606;28;20441;-65
2022/12/19 11:00:55;;;;;;;2.10;1.90;;;8.70;86.10;;;;;;5055053;28;20032;-58
2022/12/19 11:03:21;;;;;;;1.75;1.63;;;8.70;86.00;;;;;;5044381;28;20037;-58
2022/12/19 11:05:56;;;;;;;2.50;2.17;;;8.70;86.00;;;;;;5047456;28;20033;-59
2022/12/19 11:08:31;;;;;;;1.52;1.08;;;8.70;86.00;;;;;;5048466;28;20143;-58
2022/12/19 11:11:03;;;;;;;4.32;2.42;;;8.70;86.00;;;;;;5048918;28;20439;-65
2022/12/19 11:13:42;;;;;;;5.03;2.58;;;8.70;86.10;;;;;;5048721;28;20033;-58
2022/12/19 11:16:08;;;;;;;1.60;1.50;;;8.70;86.20;;;;;;5057217;28;20017;-58
2022/12/19 11:18:45;;;;;;;1.75;1.40;;;8.80;86.10;;;;;;5039302;28;20033;-59
2022/12/19 11:21:26;;;;;;;2.70;1.92;;;8.80;85.90;;;;;;5042770;28;20029;-59
2022/12/19 11:24:04;;;;;;;1.95;1.70;;;8.80;85.80;;;;;;5041449;28;20033;-59
2022/12/19 11:26:39;;;;;;;3.55;2.10;;;8.90;85.80;;;;;;5064087;28;20029;-59
2022/12/19 11:29:25;;;;;;;2.22;2.03;;;8.80;85.90;;;;;;5045939;28;20145;-59
2022/12/19 11:31:59;;;;;;;2.80;2.15;;;8.90;86.20;;;;;;5043119;28;20040;-59
2022/12/19 11:34:28;;;;;;;2.97;1.70;;;8.90;86.60;;;;;;5045403;28;20032;-59
2022/12/19 11:37:17;;;;;;;6.72;2.00;;;8.80;86.00;;;;;;5035229;28;20153;-59
2022/12/19 11:40:18;;;;;;;1.75;1.33;;;8.90;86.10;;;;;;5049890;28;20075;-59
2022/12/19 11:42:58;;;;;;;1.92;1.52;;;8.90;86.00;;;;;;5041938;28;20484;-59
2022/12/19 11:45:47;;;;;;;3.58;1.83;;;8.90;85.90;;;;;;5040733;28;20056;-62
2022/12/19 11:48:24;;;;;;;2.28;1.63;;;9.00;85.80;;;;;;5044986;28;20508;-58
2022/12/19 11:51:22;;;;;;;3.55;1.73;;;9.00;86.00;;;;;;5043526;28;20072;-60
2022/12/19 11:54:08;;;;;;;3.35;1.88;;;9.00;86.00;;;;;;5041739;28;20049;-66
2022/12/19 11:56:34;;;;;;;1.75;1.33;;;9.00;86.10;;;;;;5033496;28;20396;-66
2022/12/19 11:59:10;;;;;;;2.30;1.80;;;9.00;86.20;;;;;;5047273;28;20048;-59
2022/12/19 12:01:42;;;;;;;5.38;1.60;;;9.10;86.10;;;;;;5049603;28;20059;-66
2022/12/19 12:04:22;;;;;;;3.05;1.95;;;9.10;86.00;;;;;;5054664;28;20025;-59
2022/12/19 12:06:54;;;;;;;2.20;1.73;;;9.10;85.90;;;;;;5049861;28;20051;-65
2022/12/19 12:09:25;;;;;;;2.97;1.70;;;9.10;86.10;;;;;;5041030;28;20025;-67
2022/12/19 12:12:03;;;;;;;4.25;2.47;;;9.20;86.30;;;;;;5037190;28;20491;-66
2022/12/19 12:14:44;;;;;;;2.67;2.13;;;9.20;86.40;;;;;;5041344;28;20051;-60
2022/12/19 12:17:13;;;;;;;2.35;1.30;;;9.30;86.40;;;;;;5039728;28;20551;-60
2022/12/19 12:19:41;;;;;;;1.50;1.40;;;9.30;86.40;;;;;;5033867;28;20476;-66
2022/12/19 12:22:40;;;;;;;1.65;1.17;;;9.30;86.30;;;;;;5044906;28;20065;-66
2022/12/19 12:25:36;;;;;;;2.50;1.63;;;9.40;86.20;;;;;;5044247;28;20021;-66
2022/12/19 12:28:14;;;;;;;1.85;1.60;;;9.40;86.20;;;;;;5033664;28;20032;-60
2022/12/19 12:30:50;;;;;;;2.30;1.88;;;9.40;86.60;;;;;;5042879;28;20468;-67
2022/12/19 12:33:39;;;;;;;3.05;1.60;;;9.50;86.60;;;;;;5042470;28;20310;-66
2022/12/19 12:36:14;;;;;;;2.00;1.80;;;9.50;86.50;;;;;;5032973;28;20024;-67
2022/12/19 12:38:55;;;;;;;2.08;1.65;;;9.50;86.50;;;;;;5035752;28;20483;-67
2022/12/19 12:44:29;;;;;;;5.30;1.55;;;9.60;86.50;;;;;;5040880;28;20098;-67
2022/12/19 12:47:25;;;;;;;1.50;1.38;;;9.60;86.50;;;;;;5047752;28;20045;-66
2022/12/19 12:50:02;;;;;;;2.45;1.65;;;9.70;86.40;;;;;;5024429;28;20052;-60
2022/12/19 12:52:37;;;;;;;1.58;1.38;;;9.70;86.50;;;;;;5039392;28;20694;-68
2022/12/19 12:55:11;;;;;;;1.13;1.02;;;9.70;86.20;;;;;;5050784;28;20025;-67
2022/12/19 12:57:37;;;;;;;2.97;1.73;;;9.70;86.10;;;;;;5045058;28;20117;-67
2022/12/19 13:00:20;;;;;;;1.42;1.33;;;9.70;86.10;;;;;;5032608;28;20033;-67
2022/12/19 13:03:08;;;;;;;2.70;1.58;;;9.80;86.10;;;;;;5033210;28;20042;-68
2022/12/19 13:06:01;;;;;;;2.60;1.40;;;9.80;86.00;;;;;;5045081;28;20029;-67
2022/12/19 13:08:35;;;;;;;1.38;1.27;;;9.70;86.00;;;;;;5046083;28;20055;-68
2022/12/19 13:14:05;;;;;;;2.55;1.90;;;9.80;86.10;;;;;;5038292;28;20574;-67
2022/12/19 13:16:43;;;;;;;4.03;1.73;;;9.80;86.20;;;;;;5039701;28;20025;-67
2022/12/19 13:19:27;;;;;;;2.97;1.92;;;9.90;86.20;;;;;;5035373;28;20029;-68
2022/12/19 13:22:08;;;;;;;2.33;1.35;;;10.00;86.00;;;;;;5041799;28;20060;-68